Time;durP1;ratioP1;P1;durP2;ratioP2;P2;SDS_P1;SDS_P2;PMS_P1;PMS_P2;Temp;Humidity;BMP_temperature;BMP_pressure;BME280_temperature;BME280_humidity;BME280_pressure;Samples;Min_cycle;Max_cycle;Signal;HPM_P1;HPM_P2
2022/10/24 00:00:31;;;;;;;21.10;11.85;;;14.20;99.90;;;;;;4767754;30;20107;-72
2022/10/24 00:02:57;;;;;;;24.13;11.18;;;14.20;99.90;;;;;;4767615;30;20036;-72
2022/10/24 00:05:23;;;;;;;23.58;12.73;;;14.20;99.90;;;;;;4768885;30;20059;-71
2022/10/24 00:07:49;;;;;;;27.80;16.10;;;14.10;99.90;;;;;;4771217;30;20491;-71
2022/10/24 00:10:16;;;;;;;26.27;15.35;;;14.10;99.90;;;;;;4770750;30;20035;-71
2022/10/24 00:12:42;;;;;;;28.60;14.38;;;14.10;99.90;;;;;;4771560;30;20040;-71
2022/10/24 00:15:08;;;;;;;23.25;12.73;;;14.10;99.90;;;;;;4770943;30;20039;-72
2022/10/24 00:17:34;;;;;;;25.88;13.65;;;14.10;99.90;;;;;;4770604;30;20036;-75
2022/10/24 00:20:00;;;;;;;23.23;15.73;;;14.00;99.90;;;;;;4747289;30;20043;-71
2022/10/24 00:22:27;;;;;;;26.85;14.90;;;14.00;99.90;;;;;;4771159;30;20035;-71
2022/10/24 00:24:52;;;;;;;20.40;13.18;;;14.00;99.90;;;;;;4774691;30;20054;-72
2022/10/24 00:27:19;;;;;;;22.70;13.18;;;14.00;99.90;;;;;;4771046;30;20023;-71
2022/10/24 00:29:45;;;;;;;20.38;12.90;;;14.00;99.90;;;;;;4771171;30;20586;-71
2022/10/24 00:32:10;;;;;;;21.13;13.88;;;14.00;99.90;;;;;;4773805;30;20119;-71
2022/10/24 00:34:37;;;;;;;30.70;13.70;;;14.00;99.90;;;;;;4770621;30;20042;-72
2022/10/24 00:37:03;;;;;;;25.58;14.50;;;14.00;99.90;;;;;;4770526;30;20028;-71
2022/10/24 00:39:29;;;;;;;25.02;14.75;;;14.00;99.90;;;;;;4771143;30;20125;-72
2022/10/24 00:41:57;;;;;;;21.08;14.32;;;14.00;99.90;;;;;;4770665;30;20483;-70
2022/10/24 00:44:23;;;;;;;22.17;14.07;;;13.90;99.90;;;;;;4770456;30;20020;-72
2022/10/24 00:47:14;;;;;;;23.35;15.32;;;13.90;99.90;;;;;;4770881;30;20502;-70
2022/10/24 00:49:52;;;;;;;24.58;14.18;;;14.00;99.90;;;;;;4770450;30;20047;-71
2022/10/24 00:52:26;;;;;;;20.48;12.57;;;14.00;99.90;;;;;;4770437;30;20089;-72
2022/10/24 00:54:54;;;;;;;21.42;13.55;;;14.00;99.90;;;;;;4770553;30;20583;-71
2022/10/24 00:57:23;;;;;;;24.58;14.70;;;13.80;99.90;;;;;;4770755;30;20039;-71
2022/10/24 00:59:54;;;;;;;26.50;16.58;;;13.80;99.90;;;;;;4770364;30;20032;-71
2022/10/24 01:02:20;;;;;;;25.63;14.38;;;13.70;99.90;;;;;;4770673;30;20119;-71
2022/10/24 01:04:47;;;;;;;24.25;13.52;;;13.50;99.90;;;;;;4770226;30;20044;-71
2022/10/24 01:07:34;;;;;;;24.52;15.10;;;13.60;99.90;;;;;;4769961;30;20066;-71
2022/10/24 01:10:27;;;;;;;23.27;14.70;;;13.60;99.90;;;;;;4770458;30;20042;-72
2022/10/24 01:13:23;;;;;;;25.48;14.35;;;13.60;99.90;;;;;;4770450;30;20439;-71
2022/10/24 01:15:52;;;;;;;26.30;15.82;;;13.50;99.90;;;;;;4769959;30;20023;-71
2022/10/24 01:18:33;;;;;;;21.50;14.25;;;13.50;99.90;;;;;;4770212;30;20028;-71
2022/10/24 01:21:02;;;;;;;28.05;17.60;;;13.40;99.90;;;;;;4770063;30;20483;-71
2022/10/24 01:23:56;;;;;;;27.90;15.88;;;13.30;99.90;;;;;;4769967;30;20035;-70
2022/10/24 01:26:51;;;;;;;29.80;16.80;;;13.40;99.90;;;;;;4770077;30;20662;-72
2022/10/24 01:29:21;;;;;;;23.58;14.18;;;13.30;99.90;;;;;;4767537;30;20506;-70
2022/10/24 01:31:53;;;;;;;23.85;15.40;;;13.30;99.90;;;;;;4770147;30;20067;-71
2022/10/24 01:34:32;;;;;;;25.33;15.35;;;13.30;99.90;;;;;;4770042;30;20043;-71
2022/10/24 01:37:18;;;;;;;24.15;15.95;;;13.30;99.90;;;;;;4770089;30;20039;-71
2022/10/24 01:39:50;;;;;;;22.85;14.25;;;13.30;99.90;;;;;;4770024;30;20036;-70
2022/10/24 01:42:20;;;;;;;33.60;16.83;;;13.30;99.90;;;;;;4769816;30;20536;-71
2022/10/24 01:44:50;;;;;;;31.23;14.98;;;13.30;99.90;;;;;;4770061;30;20387;-71
2022/10/24 01:47:25;;;;;;;28.13;15.75;;;13.30;99.90;;;;;;4753838;30;20041;-71
2022/10/24 01:49:57;;;;;;;21.88;16.08;;;13.30;99.90;;;;;;4769984;30;20595;-71
2022/10/24 01:52:26;;;;;;;31.75;17.00;;;13.20;99.90;;;;;;4769562;30;20503;-72
2022/10/24 01:54:53;;;;;;;25.58;15.40;;;13.20;99.90;;;;;;4769539;30;20449;-72
2022/10/24 01:57:19;;;;;;;25.30;16.80;;;13.20;99.90;;;;;;4769311;30;20032;-72
2022/10/24 01:59:47;;;;;;;31.10;16.73;;;13.10;99.90;;;;;;4769972;30;20039;-72
2022/10/24 02:02:41;;;;;;;28.33;18.38;;;13.10;99.90;;;;;;4770731;30;20074;-73
2022/10/24 02:05:20;;;;;;;42.47;26.63;;;13.20;99.90;;;;;;4768468;30;20051;-73
2022/10/24 02:07:50;;;;;;;41.40;23.45;;;13.20;99.90;;;;;;4770392;30;20554;-73
2022/10/24 02:10:27;;;;;;;31.08;16.70;;;13.20;99.90;;;;;;4770752;30;20495;-72
2022/10/24 02:13:03;;;;;;;24.50;16.33;;;13.20;99.90;;;;;;4770481;30;20043;-73
2022/10/24 02:15:35;;;;;;;25.23;15.57;;;13.20;99.90;;;;;;4779214;30;20067;-72
2022/10/24 02:18:01;;;;;;;24.30;14.80;;;13.10;99.90;;;;;;4773434;30;20036;-72
2022/10/24 02:20:40;;;;;;;25.05;14.55;;;13.10;99.90;;;;;;4770660;30;20103;-72
2022/10/24 02:23:34;;;;;;;22.88;14.10;;;13.10;99.90;;;;;;4770430;30;20043;-72
2022/10/24 02:26:03;;;;;;;27.48;16.15;;;13.10;99.90;;;;;;4770485;30;20042;-72
2022/10/24 02:28:34;;;;;;;22.67;15.10;;;13.00;99.90;;;;;;4769568;30;20032;-71
2022/10/24 02:31:08;;;;;;;26.02;15.57;;;13.00;99.90;;;;;;4770429;30;20458;-72
2022/10/24 02:33:38;;;;;;;25.85;15.50;;;13.00;99.90;;;;;;4770243;30;20048;-72
2022/10/24 02:36:08;;;;;;;22.65;13.55;;;12.90;99.90;;;;;;4770051;30;20484;-72
2022/10/24 02:38:38;;;;;;;25.67;14.93;;;12.90;99.90;;;;;;4769893;30;20063;-72
2022/10/24 02:41:10;;;;;;;23.73;15.25;;;12.90;99.90;;;;;;4770253;30;20100;-72
2022/10/24 02:43:39;;;;;;;22.98;14.63;;;12.90;99.90;;;;;;4769951;30;20031;-73
2022/10/24 02:46:06;;;;;;;23.27;14.43;;;12.90;99.90;;;;;;4770205;30;20515;-72
2022/10/24 02:48:37;;;;;;;22.30;14.13;;;12.90;99.90;;;;;;4769826;30;20066;-72
2022/10/24 02:51:04;;;;;;;24.33;13.80;;;12.90;99.90;;;;;;4770047;30;20040;-72
2022/10/24 02:53:33;;;;;;;24.75;14.38;;;12.90;99.90;;;;;;4769891;30;20054;-72
2022/10/24 02:55:59;;;;;;;24.02;15.88;;;12.90;99.90;;;;;;4770038;30;20065;-72
2022/10/24 02:58:25;;;;;;;24.15;14.55;;;12.80;99.90;;;;;;4769800;30;20352;-72
2022/10/24 03:00:51;;;;;;;18.02;12.70;;;12.80;99.90;;;;;;4769713;30;20027;-73
2022/10/24 03:03:16;;;;;;;24.80;13.98;;;12.70;99.90;;;;;;4769559;30;20031;-72
2022/10/24 03:05:42;;;;;;;20.08;14.40;;;12.70;99.90;;;;;;4768813;30;20051;-73
2022/10/24 03:08:08;;;;;;;22.63;12.50;;;12.70;99.90;;;;;;4769804;30;20043;-72
2022/10/24 03:10:34;;;;;;;22.85;13.07;;;12.70;99.90;;;;;;4769367;30;20024;-72
2022/10/24 03:13:00;;;;;;;25.23;12.68;;;12.70;99.90;;;;;;4771965;30;20038;-73
2022/10/24 03:15:26;;;;;;;20.00;11.77;;;12.70;99.90;;;;;;4781660;30;20082;-72
2022/10/24 03:17:51;;;;;;;17.05;10.43;;;12.70;99.90;;;;;;4779576;30;20039;-73
2022/10/24 03:20:17;;;;;;;21.83;13.88;;;12.60;99.90;;;;;;4769145;30;20093;-72
2022/10/24 03:22:43;;;;;;;23.67;13.13;;;12.60;99.90;;;;;;4769284;30;20434;-73
2022/10/24 03:25:10;;;;;;;30.38;15.63;;;12.50;99.90;;;;;;4769494;30;20042;-72
2022/10/24 03:27:36;;;;;;;22.92;12.70;;;12.50;99.90;;;;;;4769039;30;20085;-72
2022/10/24 03:30:03;;;;;;;18.10;12.25;;;12.60;99.90;;;;;;4769164;30;20036;-73
2022/10/24 03:32:29;;;;;;;19.08;11.23;;;12.60;99.90;;;;;;4769277;30;20059;-72
2022/10/24 03:34:55;;;;;;;23.55;11.40;;;12.60;99.90;;;;;;4769116;30;20068;-73
2022/10/24 03:37:21;;;;;;;25.02;14.48;;;12.60;99.90;;;;;;4768915;30;20036;-72
2022/10/24 03:39:48;;;;;;;22.98;12.98;;;12.50;99.90;;;;;;4768494;30;20502;-72
2022/10/24 03:42:14;;;;;;;20.02;11.98;;;12.50;99.90;;;;;;4769188;30;20090;-72
2022/10/24 03:44:40;;;;;;;18.35;11.88;;;12.50;99.90;;;;;;4768918;30;20511;-72
2022/10/24 03:47:05;;;;;;;22.23;13.07;;;12.40;99.90;;;;;;4769112;30;20034;-72
2022/10/24 03:49:31;;;;;;;21.45;11.80;;;12.40;99.90;;;;;;4768913;30;20483;-73
2022/10/24 03:51:57;;;;;;;17.85;11.32;;;12.40;99.90;;;;;;4769063;30;20032;-72
2022/10/24 03:54:23;;;;;;;21.95;13.10;;;12.40;99.90;;;;;;4768828;30;20055;-72
2022/10/24 03:56:49;;;;;;;19.45;11.77;;;12.40;99.90;;;;;;4769221;30;20039;-72
2022/10/24 03:59:15;;;;;;;25.05;16.35;;;12.40;99.90;;;;;;4769322;30;20379;-73
2022/10/24 04:01:41;;;;;;;20.90;13.93;;;12.40;99.90;;;;;;4757867;30;20050;-71
2022/10/24 04:04:07;;;;;;;23.90;14.25;;;12.40;99.90;;;;;;4768922;30;20036;-73
2022/10/24 04:06:32;;;;;;;25.25;15.30;;;12.40;99.90;;;;;;4768393;30;20112;-73
2022/10/24 04:08:58;;;;;;;23.38;15.38;;;12.50;99.90;;;;;;4768981;30;20059;-72
2022/10/24 04:11:24;;;;;;;23.30;14.48;;;12.50;99.90;;;;;;4768900;30;20104;-72
2022/10/24 04:13:51;;;;;;;27.85;18.08;;;12.50;99.90;;;;;;4777741;30;20051;-72
2022/10/24 04:16:18;;;;;;;26.33;16.08;;;12.50;99.90;;;;;;4781473;30;20028;-72
2022/10/24 04:18:44;;;;;;;37.38;26.27;;;12.60;99.90;;;;;;4771897;30;20047;-72
2022/10/24 04:21:09;;;;;;;40.20;26.95;;;12.60;99.90;;;;;;4763391;30;20021;-71
2022/10/24 04:23:39;;;;;;;47.92;24.48;;;12.60;99.90;;;;;;4763355;30;20089;-72
2022/10/24 04:26:12;;;;;;;36.60;22.30;;;12.60;99.90;;;;;;4786370;30;20099;-72
2022/10/24 04:28:39;;;;;;;30.20;19.58;;;12.60;99.90;;;;;;4780615;30;20104;-73
2022/10/24 04:31:05;;;;;;;25.48;17.50;;;12.60;99.90;;;;;;4769908;30;20054;-72
2022/10/24 04:33:30;;;;;;;27.67;16.05;;;12.60;99.90;;;;;;4768277;30;20048;-72
2022/10/24 04:35:56;;;;;;;27.77;17.33;;;12.60;99.90;;;;;;4768319;30;20114;-72
2022/10/24 04:38:22;;;;;;;27.20;17.27;;;12.70;99.90;;;;;;4768641;30;20085;-72
2022/10/24 04:40:53;;;;;;;27.55;17.27;;;12.70;99.90;;;;;;4768468;30;20571;-73
2022/10/24 04:43:20;;;;;;;26.13;15.63;;;12.70;99.90;;;;;;4768727;30;20483;-72
2022/10/24 04:45:46;;;;;;;24.83;15.57;;;12.70;99.90;;;;;;4768393;30;20040;-72
2022/10/24 04:48:12;;;;;;;26.02;15.25;;;12.70;99.90;;;;;;4768809;30;20039;-73
2022/10/24 04:50:40;;;;;;;28.88;16.23;;;12.70;99.90;;;;;;4768966;30;20407;-72
2022/10/24 04:53:06;;;;;;;25.13;14.95;;;12.70;99.90;;;;;;4771693;30;20036;-72
2022/10/24 04:55:33;;;;;;;30.63;15.18;;;12.70;99.90;;;;;;4771916;30;20053;-72
2022/10/24 04:57:59;;;;;;;24.10;16.95;;;12.70;99.90;;;;;;4773358;30;20467;-72
2022/10/24 05:00:25;;;;;;;29.10;17.52;;;12.70;99.90;;;;;;4781934;30;20085;-72
2022/10/24 05:02:51;;;;;;;37.95;15.98;;;12.70;99.90;;;;;;4771329;30;20035;-72
2022/10/24 05:05:17;;;;;;;25.70;15.45;;;12.60;99.90;;;;;;4771155;30;20044;-72
2022/10/24 05:07:44;;;;;;;26.17;16.00;;;12.60;99.90;;;;;;4771437;30;20028;-72
2022/10/24 05:10:10;;;;;;;27.92;15.88;;;12.60;99.90;;;;;;4771463;30;20085;-73
2022/10/24 05:12:36;;;;;;;29.88;16.40;;;12.60;99.90;;;;;;4771523;30;20543;-73
2022/10/24 05:15:03;;;;;;;24.83;15.02;;;12.60;99.90;;;;;;4784221;30;20059;-72
2022/10/24 05:17:29;;;;;;;24.77;15.02;;;12.60;99.90;;;;;;4771562;30;20495;-72
2022/10/24 05:19:54;;;;;;;35.95;17.27;;;12.60;99.90;;;;;;4771023;30;20035;-73
2022/10/24 05:22:20;;;;;;;28.75;15.70;;;12.70;99.90;;;;;;4771665;30;20078;-72
2022/10/24 05:24:46;;;;;;;29.83;15.95;;;12.60;99.90;;;;;;4771511;30;20031;-72
2022/10/24 05:27:12;;;;;;;32.60;17.77;;;12.70;99.90;;;;;;4771902;30;20036;-72
2022/10/24 05:29:38;;;;;;;32.08;17.83;;;12.80;99.90;;;;;;4771313;30;20110;-73
2022/10/24 05:32:04;;;;;;;26.77;16.23;;;12.80;99.90;;;;;;4771622;30;20038;-72
2022/10/24 05:34:29;;;;;;;38.78;18.33;;;12.90;99.90;;;;;;4771511;30;20079;-72
2022/10/24 05:36:55;;;;;;;47.35;25.15;;;12.90;99.90;;;;;;4771108;30;20379;-72
2022/10/24 05:39:21;;;;;;;39.38;21.10;;;13.00;99.90;;;;;;4771399;30;20042;-72
2022/10/24 05:41:47;;;;;;;35.20;19.83;;;13.10;99.90;;;;;;4771359;30;20110;-72
2022/10/24 05:44:14;;;;;;;31.02;16.92;;;13.20;99.90;;;;;;4771021;30;20519;-72
2022/10/24 05:46:40;;;;;;;40.85;22.40;;;13.20;99.90;;;;;;4767921;30;20562;-72
2022/10/24 05:49:06;;;;;;;35.78;22.20;;;13.20;99.90;;;;;;4770244;30;20028;-72
2022/10/24 05:51:32;;;;;;;46.35;30.00;;;13.30;99.90;;;;;;4771004;30;20040;-72
2022/10/24 05:53:58;;;;;;;81.68;50.22;;;13.30;99.90;;;;;;4771232;30;20087;-73
2022/10/24 05:56:25;;;;;;;37.67;20.20;;;13.30;99.90;;;;;;4771183;30;20479;-72
2022/10/24 05:58:50;;;;;;;28.52;17.92;;;13.20;99.90;;;;;;4771157;30;20027;-73
2022/10/24 06:01:16;;;;;;;30.50;18.30;;;13.20;99.90;;;;;;4771030;30;20028;-72
2022/10/24 06:03:42;;;;;;;82.35;50.00;;;13.40;99.90;;;;;;4770098;30;20031;-72
2022/10/24 06:06:09;;;;;;;43.05;27.48;;;13.20;99.90;;;;;;4770829;30;20095;-72
2022/10/24 06:08:36;;;;;;;24.55;15.18;;;13.30;99.90;;;;;;4770607;30;20031;-72
2022/10/24 06:11:02;;;;;;;39.22;16.17;;;13.50;99.90;;;;;;4771103;30;20051;-72
2022/10/24 06:13:29;;;;;;;24.88;15.48;;;13.50;99.90;;;;;;4770932;30;20100;-72
2022/10/24 06:15:55;;;;;;;22.95;13.63;;;13.70;99.90;;;;;;4770639;30;20035;-72
2022/10/24 06:18:22;;;;;;;20.27;12.38;;;13.80;99.90;;;;;;4770076;30;20043;-72
2022/10/24 06:20:47;;;;;;;23.10;14.40;;;13.60;99.90;;;;;;4770719;30;20059;-72
2022/10/24 06:23:13;;;;;;;22.33;13.70;;;13.70;99.90;;;;;;4770465;30;20128;-73
2022/10/24 06:25:40;;;;;;;22.45;13.18;;;13.50;99.90;;;;;;4770691;30;20028;-72
2022/10/24 06:28:06;;;;;;;30.15;15.20;;;13.30;99.90;;;;;;4770771;30;20039;-72
2022/10/24 06:30:34;;;;;;;25.40;13.65;;;13.40;99.90;;;;;;4770427;30;20043;-73
2022/10/24 06:33:00;;;;;;;25.65;13.15;;;13.50;99.90;;;;;;4770477;30;20059;-73
2022/10/24 06:35:26;;;;;;;33.00;17.23;;;13.70;99.90;;;;;;4770463;30;20036;-73
2022/10/24 06:37:53;;;;;;;31.83;19.95;;;13.90;99.90;;;;;;4754204;30;20055;-72
2022/10/24 06:40:19;;;;;;;30.35;20.98;;;14.20;99.90;;;;;;4770253;30;20031;-72
2022/10/24 06:42:45;;;;;;;39.58;20.98;;;14.30;99.90;;;;;;4753938;30;20172;-72
2022/10/24 06:45:11;;;;;;;28.05;18.77;;;14.30;99.90;;;;;;4770245;30;20037;-73
2022/10/24 06:47:37;;;;;;;27.98;18.25;;;14.30;99.90;;;;;;4770279;30;20038;-73
2022/10/24 06:50:04;;;;;;;24.05;17.48;;;14.50;99.90;;;;;;4770278;30;20036;-73
2022/10/24 06:52:30;;;;;;;33.78;19.17;;;14.70;99.90;;;;;;4769964;30;20019;-73
2022/10/24 06:54:56;;;;;;;40.20;18.67;;;14.80;99.90;;;;;;4770271;30;20043;-72
2022/10/24 06:57:22;;;;;;;33.85;19.92;;;15.00;99.90;;;;;;4769856;30;20483;-73
2022/10/24 06:59:47;;;;;;;41.78;21.27;;;15.20;99.90;;;;;;4770012;30;20035;-72
2022/10/24 07:02:15;;;;;;;34.40;21.08;;;15.30;99.90;;;;;;4769868;30;20387;-72
2022/10/24 07:04:42;;;;;;;32.85;20.23;;;15.40;99.90;;;;;;4769172;30;20476;-73
2022/10/24 07:07:16;;;;;;;31.20;20.27;;;15.50;99.90;;;;;;4769004;30;20500;-72
2022/10/24 07:09:42;;;;;;;31.13;21.42;;;15.70;99.90;;;;;;4768775;30;20432;-73
2022/10/24 07:12:08;;;;;;;36.40;22.52;;;15.80;99.90;;;;;;4769279;30;20383;-73
2022/10/24 07:14:34;;;;;;;35.60;23.35;;;16.00;99.90;;;;;;4781396;29;20043;-72
2022/10/24 07:17:00;;;;;;;41.63;25.08;;;16.10;99.90;;;;;;4769219;30;20546;-72
2022/10/24 07:19:26;;;;;;;42.50;24.67;;;16.10;99.90;;;;;;4769428;30;20075;-73
2022/10/24 07:21:52;;;;;;;48.42;26.13;;;16.00;99.90;;;;;;4768979;30;20162;-72
2022/10/24 07:24:19;;;;;;;50.58;30.92;;;16.00;99.90;;;;;;4769596;30;20040;-73
2022/10/24 07:26:45;;;;;;;44.13;30.02;;;15.90;99.90;;;;;;4769317;30;20057;-72
2022/10/24 07:29:10;;;;;;;47.88;30.75;;;16.20;99.90;;;;;;4769507;30;20035;-73
2022/10/24 07:31:36;;;;;;;60.08;35.45;;;16.40;99.90;;;;;;4769258;30;20172;-73
2022/10/24 07:34:04;;;;;;;72.32;38.22;;;16.70;99.90;;;;;;4769277;30;20062;-72
2022/10/24 07:36:30;;;;;;;56.75;37.78;;;16.90;99.90;;;;;;4769143;30;20544;-72
2022/10/24 07:38:57;;;;;;;80.80;46.22;;;17.10;99.90;;;;;;4769672;30;20089;-73
2022/10/24 07:41:25;;;;;;;71.47;52.97;;;17.20;99.90;;;;;;4769407;30;20028;-73
2022/10/24 07:43:53;;;;;;;66.72;45.25;;;17.40;99.90;;;;;;4769245;30;20039;-72
2022/10/24 07:46:22;;;;;;;44.50;31.48;;;17.50;99.90;;;;;;4769378;30;20024;-73
2022/10/24 07:48:51;;;;;;;29.98;20.95;;;17.60;99.90;;;;;;4769266;30;20054;-72
2022/10/24 07:51:18;;;;;;;19.83;10.80;;;17.60;99.90;;;;;;4769144;30;20032;-73
2022/10/24 07:53:44;;;;;;;19.00;9.98;;;17.60;99.90;;;;;;4768781;30;20040;-72
2022/10/24 07:56:13;;;;;;;17.75;10.27;;;17.70;99.90;;;;;;4769213;30;20052;-72
2022/10/24 07:58:39;;;;;;;25.45;10.73;;;18.00;99.90;;;;;;4768963;30;20440;-73
2022/10/24 08:01:14;;;;;;;17.83;11.68;;;17.90;99.90;;;;;;4768938;30;20074;-74
2022/10/24 08:03:40;;;;;;;18.25;9.02;;;18.20;99.90;;;;;;4768983;30;20067;-73
2022/10/24 08:06:09;;;;;;;15.38;8.95;;;18.00;99.90;;;;;;4768949;30;20144;-72
2022/10/24 08:08:35;;;;;;;15.52;9.43;;;18.20;99.90;;;;;;4768790;30;20036;-73
2022/10/24 08:11:12;;;;;;;17.13;9.07;;;18.40;99.90;;;;;;4768884;30;20093;-73
2022/10/24 08:13:38;;;;;;;26.95;10.60;;;18.70;99.90;;;;;;4765866;30;20456;-72
2022/10/24 08:16:06;;;;;;;14.25;9.68;;;18.90;99.90;;;;;;4772472;30;20127;-72
2022/10/24 08:18:32;;;;;;;17.00;9.25;;;19.00;99.90;;;;;;4762244;30;20040;-72
2022/10/24 08:21:00;;;;;;;17.52;8.70;;;19.00;99.90;;;;;;4764408;30;20089;-72
2022/10/24 08:23:26;;;;;;;19.65;9.95;;;18.90;99.90;;;;;;4764857;30;20156;-73
2022/10/24 08:25:53;;;;;;;18.83;9.98;;;19.10;99.90;;;;;;4755723;30;20036;-73
2022/10/24 08:28:19;;;;;;;19.40;10.30;;;19.30;99.90;;;;;;4769888;30;20110;-72
2022/10/24 08:30:57;;;;;;;19.23;11.75;;;19.40;99.90;;;;;;4770340;30;20475;-73
2022/10/24 08:33:23;;;;;;;24.98;13.60;;;19.40;99.90;;;;;;4771550;30;20101;-72
2022/10/24 08:35:49;;;;;;;29.63;16.33;;;19.40;99.90;;;;;;4772319;30;20032;-72
2022/10/24 08:38:15;;;;;;;21.23;11.70;;;19.30;99.90;;;;;;4771918;30;20075;-72
2022/10/24 08:40:41;;;;;;;26.15;11.70;;;19.30;99.90;;;;;;4772208;30;20055;-73
2022/10/24 08:43:10;;;;;;;22.15;12.15;;;19.50;99.90;;;;;;4771891;30;20035;-73
2022/10/24 08:45:59;;;;;;;20.35;13.38;;;19.60;99.90;;;;;;4771054;30;20066;-73
2022/10/24 08:48:35;;;;;;;20.65;12.07;;;19.70;99.90;;;;;;4766975;30;20679;-72
2022/10/24 08:51:29;;;;;;;26.35;12.50;;;19.90;99.90;;;;;;4771876;30;20093;-73
2022/10/24 08:53:57;;;;;;;24.23;10.00;;;20.10;99.90;;;;;;4771889;30;20052;-73
2022/10/24 08:56:26;;;;;;;21.35;9.55;;;20.20;99.90;;;;;;4772142;30;20024;-73
2022/10/24 08:58:52;;;;;;;28.75;9.00;;;20.30;99.90;;;;;;4771830;30;20032;-73
2022/10/24 09:01:43;;;;;;;19.80;9.63;;;20.50;99.90;;;;;;4771354;30;20537;-72
2022/10/24 09:04:13;;;;;;;17.00;9.30;;;20.70;99.90;;;;;;4777612;30;20114;-72
2022/10/24 09:06:39;;;;;;;20.33;10.30;;;20.80;99.90;;;;;;4771775;30;20056;-73
2022/10/24 09:09:18;;;;;;;21.48;10.55;;;21.00;99.90;;;;;;4771519;30;20039;-73
2022/10/24 09:11:54;;;;;;;20.80;9.40;;;21.20;99.90;;;;;;4771695;30;20042;-73
2022/10/24 09:14:30;;;;;;;18.92;9.13;;;21.50;99.90;;;;;;4784026;30;20498;-71
2022/10/24 09:17:23;;;;;;;17.05;9.45;;;21.60;99.90;;;;;;4760350;30;20040;-72
2022/10/24 09:20:11;;;;;;;21.65;8.88;;;21.60;99.90;;;;;;4773945;30;20510;-73
2022/10/24 09:22:38;;;;;;;21.48;8.60;;;21.80;99.90;;;;;;4774366;30;20496;-72
2022/10/24 09:25:10;;;;;;;16.92;8.50;;;21.90;99.90;;;;;;4773081;30;20126;-72
2022/10/24 09:27:38;;;;;;;23.48;10.50;;;21.90;99.90;;;;;;4764644;30;20388;-73
2022/10/24 09:30:07;;;;;;;18.35;9.90;;;21.90;99.90;;;;;;4762287;30;20024;-72
2022/10/24 09:32:35;;;;;;;15.98;8.77;;;22.00;99.90;;;;;;4758709;30;20070;-73
2022/10/24 09:35:10;;;;;;;21.00;9.18;;;22.00;99.90;;;;;;4759566;30;20492;-72
2022/10/24 09:37:40;;;;;;;19.23;8.57;;;22.10;99.90;;;;;;4761063;30;20039;-71
2022/10/24 09:40:21;;;;;;;23.05;9.25;;;22.10;99.90;;;;;;4777295;30;20454;-71
2022/10/24 09:42:51;;;;;;;22.73;9.13;;;22.20;99.90;;;;;;4771557;30;20036;-72
2022/10/24 09:45:29;;;;;;;18.42;9.38;;;22.30;99.90;;;;;;4770698;30;20109;-72
2022/10/24 09:47:58;;;;;;;29.17;10.15;;;22.30;99.90;;;;;;4771180;30;20038;-72
2022/10/24 09:50:25;;;;;;;23.02;10.40;;;22.40;99.90;;;;;;4783922;30;20811;-73
2022/10/24 09:52:55;;;;;;;25.45;10.63;;;22.40;99.90;;;;;;4771068;30;20063;-73
2022/10/24 09:55:24;;;;;;;20.17;10.50;;;22.40;99.90;;;;;;4770930;30;20036;-72
2022/10/24 09:57:56;;;;;;;26.75;9.95;;;22.50;99.90;;;;;;4770863;30;20111;-73
2022/10/24 10:00:32;;;;;;;23.02;10.43;;;22.70;99.90;;;;;;4770781;30;20479;-72
2022/10/24 10:03:00;;;;;;;14.70;8.13;;;22.70;99.90;;;;;;4761121;30;20020;-73
2022/10/24 10:05:47;;;;;;;19.10;10.07;;;22.70;99.90;;;;;;4769647;30;20499;-72
2022/10/24 10:08:29;;;;;;;20.88;9.35;;;22.90;99.90;;;;;;4750631;30;20481;-72
2022/10/24 10:11:05;;;;;;;20.38;9.52;;;23.20;99.90;;;;;;4764670;30;20039;-73
2022/10/24 10:13:53;;;;;;;23.02;10.40;;;23.20;99.90;;;;;;4769445;30;20049;-73
2022/10/24 10:16:32;;;;;;;20.15;10.05;;;23.20;99.90;;;;;;4769750;30;20043;-73
2022/10/24 10:19:18;;;;;;;16.42;8.45;;;23.40;99.90;;;;;;4766220;30;20044;-72
2022/10/24 10:21:58;;;;;;;16.33;8.88;;;23.50;99.90;;;;;;4756179;30;20057;-73
2022/10/24 10:24:40;;;;;;;19.92;10.60;;;23.30;99.90;;;;;;4766822;30;20044;-73
2022/10/24 10:27:45;;;;;;;23.50;9.27;;;23.40;99.90;;;;;;4766070;30;20032;-72
2022/10/24 10:30:20;;;;;;;16.40;9.00;;;23.30;99.90;;;;;;4759446;30;20036;-72
2022/10/24 10:33:20;;;;;;;21.70;10.15;;;23.40;99.90;;;;;;4777382;30;20057;-72
2022/10/24 10:35:48;;;;;;;19.77;9.45;;;23.50;99.90;;;;;;4762225;30;20448;-72
2022/10/24 10:38:34;;;;;;;20.70;9.80;;;23.60;99.90;;;;;;4759558;30;20028;-72
2022/10/24 10:41:10;;;;;;;19.65;8.40;;;23.70;99.90;;;;;;4762112;30;20048;-72
2022/10/24 10:44:11;;;;;;;25.15;8.98;;;23.70;99.90;;;;;;4759309;30;20131;-72
2022/10/24 10:46:57;;;;;;;17.27;8.90;;;23.70;99.90;;;;;;4758579;30;20061;-72
2022/10/24 10:49:31;;;;;;;23.17;9.13;;;23.80;99.90;;;;;;4773830;30;20031;-71
2022/10/24 10:52:16;;;;;;;18.67;8.77;;;23.90;99.90;;;;;;4774240;30;20102;-71
2022/10/24 10:55:00;;;;;;;19.33;8.95;;;24.10;99.90;;;;;;4755881;30;20127;-72
2022/10/24 10:57:39;;;;;;;20.70;9.27;;;24.20;99.90;;;;;;4774790;30;20044;-72
2022/10/24 11:00:10;;;;;;;21.63;8.70;;;24.30;99.90;;;;;;4764709;30;20325;-73
2022/10/24 11:02:57;;;;;;;21.58;10.15;;;24.40;99.90;;;;;;4767416;30;20077;-72
2022/10/24 11:05:43;;;;;;;22.40;9.00;;;24.50;99.90;;;;;;4753440;30;20495;-70
2022/10/24 11:08:30;;;;;;;23.63;8.48;;;24.60;99.90;;;;;;4767776;30;20168;-70
2022/10/24 11:11:06;;;;;;;20.85;9.07;;;24.60;99.90;;;;;;4769242;30;20032;-70
2022/10/24 11:13:37;;;;;;;25.85;9.35;;;24.60;99.90;;;;;;4768684;30;20119;-70
2022/10/24 11:16:09;;;;;;;17.98;9.43;;;24.50;99.90;;;;;;4769289;30;20042;-71
2022/10/24 11:18:40;;;;;;;17.40;8.68;;;24.70;99.90;;;;;;4769211;30;20036;-71
2022/10/24 11:21:09;;;;;;;24.13;8.60;;;24.70;99.90;;;;;;4768738;30;20032;-72
2022/10/24 11:23:53;;;;;;;17.08;8.63;;;24.80;99.90;;;;;;4757943;30;20070;-71
2022/10/24 11:26:34;;;;;;;15.43;8.48;;;24.80;99.90;;;;;;4758278;30;20089;-72
2022/10/24 11:29:31;;;;;;;28.48;9.57;;;24.70;99.90;;;;;;4765391;30;20062;-71
2022/10/24 11:32:05;;;;;;;26.45;9.57;;;24.60;99.90;;;;;;4767254;30;20549;-71
2022/10/24 11:35:06;;;;;;;23.00;9.60;;;24.70;99.90;;;;;;4767606;30;20035;-72
2022/10/24 11:37:36;;;;;;;23.33;11.73;;;24.70;99.90;;;;;;4698785;30;20080;-72
2022/10/24 11:40:10;;;;;;;25.63;13.57;;;24.80;99.90;;;;;;4714013;30;20069;-74
2022/10/24 11:42:55;;;;;;;30.27;15.00;;;24.60;99.90;;;;;;4717709;30;20041;-71
2022/10/24 11:45:27;;;;;;;33.22;15.18;;;24.70;99.90;;;;;;4727475;30;20045;-71
2022/10/24 11:47:53;;;;;;;21.85;10.55;;;24.60;99.90;;;;;;4732157;30;20059;-71
2022/10/24 11:50:27;;;;;;;22.88;10.48;;;24.80;99.90;;;;;;4713891;30;20037;-71
2022/10/24 11:53:06;;;;;;;23.73;9.50;;;24.90;99.90;;;;;;4715919;30;20102;-72
2022/10/24 11:55:37;;;;;;;19.92;8.90;;;24.90;99.90;;;;;;4718503;30;20163;-71
2022/10/24 11:58:11;;;;;;;20.17;8.98;;;24.80;99.90;;;;;;4712740;30;20056;-71
2022/10/24 12:00:54;;;;;;;30.02;9.18;;;24.90;99.90;;;;;;4715372;30;20037;-71
2022/10/24 12:03:35;;;;;;;25.67;9.50;;;24.90;99.90;;;;;;4712424;30;20064;-71
2022/10/24 12:06:03;;;;;;;20.42;8.00;;;24.90;99.90;;;;;;4712379;30;20119;-72
2022/10/24 12:08:53;;;;;;;20.73;10.45;;;24.90;99.90;;;;;;4715933;30;20068;-70
2022/10/24 12:11:34;;;;;;;17.63;8.57;;;24.80;99.90;;;;;;4731286;30;20440;-69
2022/10/24 12:14:08;;;;;;;22.63;9.85;;;24.80;99.90;;;;;;4762308;30;20051;-69
2022/10/24 12:16:40;;;;;;;20.17;8.00;;;24.90;99.90;;;;;;4770275;30;20040;-70
2022/10/24 12:19:15;;;;;;;25.02;9.50;;;24.90;99.90;;;;;;4768227;30;21091;-69
2022/10/24 12:21:52;;;;;;;24.15;9.60;;;24.90;99.90;;;;;;4768377;30;20083;-69
2022/10/24 12:24:29;;;;;;;20.35;9.55;;;24.90;99.90;;;;;;4765271;30;20047;-71
2022/10/24 12:27:01;;;;;;;17.50;8.60;;;24.90;99.90;;;;;;4769880;30;20020;-71
2022/10/24 12:29:30;;;;;;;18.95;8.15;;;24.90;99.90;;;;;;4762412;30;20028;-70
2022/10/24 12:32:00;;;;;;;20.73;8.20;;;24.90;99.90;;;;;;4753838;30;20034;-71
2022/10/24 12:34:27;;;;;;;19.38;9.15;;;24.80;99.90;;;;;;4775493;30;20036;-68
2022/10/24 12:37:10;;;;;;;15.77;7.60;;;24.80;99.90;;;;;;4774537;30;20032;-70
2022/10/24 12:39:42;;;;;;;17.27;7.63;;;24.80;99.90;;;;;;4769773;30;20047;-73
2022/10/24 12:42:34;;;;;;;16.23;7.35;;;24.80;99.90;;;;;;4751067;30;20040;-70
2022/10/24 12:45:00;;;;;;;20.52;7.47;;;24.80;99.90;;;;;;4713770;30;20052;-72
2022/10/24 12:47:34;;;;;;;19.55;8.48;;;24.70;99.90;;;;;;4734481;30;20436;-70
2022/10/24 12:50:21;;;;;;;24.85;9.80;;;24.80;99.90;;;;;;4738108;30;20090;-70